sensor_id;sensor_type;location;lat;lon;timestamp;pressure;altitude;pressure_sealevel;temperature;humidity
68179;BME280;54998;42.656;23.382;2022-12-18T00:02:20;95613.00;;;5.57;80.70
68179;BME280;54998;42.656;23.382;2022-12-18T00:04:47;95598.75;;;5.54;80.00
68179;BME280;54998;42.656;23.382;2022-12-18T00:07:12;95617.56;;;5.52;79.67
68179;BME280;54998;42.656;23.382;2022-12-18T00:09:38;95608.09;;;5.40;79.51
68179;BME280;54998;42.656;23.382;2022-12-18T00:12:03;95623.09;;;5.30;79.44
68179;BME280;54998;42.656;23.382;2022-12-18T00:14:29;95619.63;;;5.31;79.22
68179;BME280;54998;42.656;23.382;2022-12-18T00:16:54;95618.63;;;5.19;79.79
68179;BME280;54998;42.656;23.382;2022-12-18T00:19:20;95630.53;;;5.19;79.67
68179;BME280;54998;42.656;23.382;2022-12-18T00:21:45;95608.88;;;5.11;79.70
68179;BME280;54998;42.656;23.382;2022-12-18T00:24:11;95634.44;;;5.10;79.61
68179;BME280;54998;42.656;23.382;2022-12-18T00:26:38;95629.06;;;5.14;nan
68179;BME280;54998;42.656;23.382;2022-12-18T00:29:08;95647.38;;;4.91;79.84
68179;BME280;54998;42.656;23.382;2022-12-18T00:31:34;95638.47;;;4.98;79.85
68179;BME280;54998;42.656;23.382;2022-12-18T00:34:00;95647.31;;;5.07;79.61
68179;BME280;54998;42.656;23.382;2022-12-18T00:36:28;95639.38;;;4.97;79.31
68179;BME280;54998;42.656;23.382;2022-12-18T00:38:55;95639.69;;;4.77;80.21
68179;BME280;54998;42.656;23.382;2022-12-18T00:41:22;95623.53;;;4.62;80.34
68179;BME280;54998;42.656;23.382;2022-12-18T00:44:07;95647.59;;;4.56;80.60
68179;BME280;54998;42.656;23.382;2022-12-18T00:46:34;95645.94;;;4.55;80.90
68179;BME280;54998;42.656;23.382;2022-12-18T00:48:59;95650.53;;;4.64;80.43
68179;BME280;54998;42.656;23.382;2022-12-18T00:51:25;95643.88;;;4.62;79.96
68179;BME280;54998;42.656;23.382;2022-12-18T00:53:52;95648.56;;;4.69;79.94
68179;BME280;54998;42.656;23.382;2022-12-18T00:56:17;95660.78;;;4.63;79.34
68179;BME280;54998;42.656;23.382;2022-12-18T00:58:48;95647.94;;;4.50;79.59
68179;BME280;54998;42.656;23.382;2022-12-18T01:01:14;95644.06;;;4.59;78.81
68179;BME280;54998;42.656;23.382;2022-12-18T01:03:39;95662.25;;;4.51;78.73
68179;BME280;54998;42.656;23.382;2022-12-18T01:06:10;95659.25;;;4.60;78.87
68179;BME280;54998;42.656;23.382;2022-12-18T01:08:37;95667.09;;;4.71;78.59
68179;BME280;54998;42.656;23.382;2022-12-18T01:11:20;95662.09;;;4.54;78.87
68179;BME280;54998;42.656;23.382;2022-12-18T01:13:49;95670.81;;;4.50;78.92
68179;BME280;54998;42.656;23.382;2022-12-18T01:16:16;95667.09;;;4.40;79.06
68179;BME280;54998;42.656;23.382;2022-12-18T01:18:41;95666.47;;;4.36;79.31
68179;BME280;54998;42.656;23.382;2022-12-18T01:21:09;95668.66;;;4.42;78.76
68179;BME280;54998;42.656;23.382;2022-12-18T01:23:35;95674.00;;;4.38;78.75
68179;BME280;54998;42.656;23.382;2022-12-18T01:26:08;95672.28;;;4.38;78.62
68179;BME280;54998;42.656;23.382;2022-12-18T01:28:34;95680.31;;;4.15;79.21
68179;BME280;54998;42.656;23.382;2022-12-18T01:31:30;95684.97;;;4.22;78.93
68179;BME280;54998;42.656;23.382;2022-12-18T01:33:57;95675.00;;;4.19;79.00
68179;BME280;54998;42.656;23.382;2022-12-18T01:36:28;95678.28;;;3.88;79.39
68179;BME280;54998;42.656;23.382;2022-12-18T01:38:55;95680.53;;;3.94;79.73
68179;BME280;54998;42.656;23.382;2022-12-18T01:41:27;95664.91;;;4.02;79.14
68179;BME280;54998;42.656;23.382;2022-12-18T01:48:04;95697.06;;;3.85;79.58
68179;BME280;54998;42.656;23.382;2022-12-18T01:53:01;95674.59;;;3.78;80.09
68179;BME280;54998;42.656;23.382;2022-12-18T01:55:31;95696.72;;;3.76;79.65
68179;BME280;54998;42.656;23.382;2022-12-18T01:57:58;95704.09;;;3.80;80.16
68179;BME280;54998;42.656;23.382;2022-12-18T02:00:24;95695.25;;;3.87;80.08
68179;BME280;54998;42.656;23.382;2022-12-18T02:02:50;95697.91;;;3.68;80.11
68179;BME280;54998;42.656;23.382;2022-12-18T02:05:19;95710.28;;;3.75;79.73
68179;BME280;54998;42.656;23.382;2022-12-18T02:13:20;95732.34;;;3.57;80.19
68179;BME280;54998;42.656;23.382;2022-12-18T02:18:48;95731.50;;;3.74;79.83
68179;BME280;54998;42.656;23.382;2022-12-18T02:21:28;95726.75;;;3.67;79.47
68179;BME280;54998;42.656;23.382;2022-12-18T02:26:59;95730.63;;;3.57;79.86
68179;BME280;54998;42.656;23.382;2022-12-18T02:29:34;95740.41;;;3.65;79.74
68179;BME280;54998;42.656;23.382;2022-12-18T02:32:06;95734.31;;;3.52;79.54
68179;BME280;54998;42.656;23.382;2022-12-18T02:34:37;95746.59;;;3.42;79.87
68179;BME280;54998;42.656;23.382;2022-12-18T02:37:05;95744.59;;;3.48;80.40
68179;BME280;54998;42.656;23.382;2022-12-18T02:39:34;95746.16;;;3.51;80.09
68179;BME280;54998;42.656;23.382;2022-12-18T02:42:01;95749.53;;;3.52;80.31
68179;BME280;54998;42.656;23.382;2022-12-18T02:44:34;95752.50;;;3.60;79.75
68179;BME280;54998;42.656;23.382;2022-12-18T02:47:01;95744.66;;;3.47;79.91
68179;BME280;54998;42.656;23.382;2022-12-18T02:49:51;95753.19;;;3.46;79.88
68179;BME280;54998;42.656;23.382;2022-12-18T02:57:57;95742.25;;;3.09;81.00
68179;BME280;54998;42.656;23.382;2022-12-18T03:00:31;95757.81;;;3.01;81.42
68179;BME280;54998;42.656;23.382;2022-12-18T03:03:14;95759.47;;;3.02;81.57
68179;BME280;54998;42.656;23.382;2022-12-18T03:05:52;95771.56;;;2.97;81.89
68179;BME280;54998;42.656;23.382;2022-12-18T03:08:22;95763.22;;;2.95;82.03
68179;BME280;54998;42.656;23.382;2022-12-18T03:10:57;95777.78;;;2.90;82.07
68179;BME280;54998;42.656;23.382;2022-12-18T03:13:28;95779.25;;;2.96;82.01
68179;BME280;54998;42.656;23.382;2022-12-18T03:15:57;95778.59;;;3.09;81.92
68179;BME280;54998;42.656;23.382;2022-12-18T03:18:36;95785.31;;;3.11;81.60
68179;BME280;54998;42.656;23.382;2022-12-18T03:21:05;95777.84;;;3.07;81.33
68179;BME280;54998;42.656;23.382;2022-12-18T03:23:46;95783.13;;;3.03;81.08
68179;BME280;54998;42.656;23.382;2022-12-18T03:26:16;95783.06;;;3.04;81.31
68179;BME280;54998;42.656;23.382;2022-12-18T03:28:45;95792.72;;;3.15;80.50
68179;BME280;54998;42.656;23.382;2022-12-18T03:31:14;95801.34;;;3.11;80.51
68179;BME280;54998;42.656;23.382;2022-12-18T03:33:45;95795.59;;;3.07;80.90
68179;BME280;54998;42.656;23.382;2022-12-18T03:36:11;95806.25;;;3.14;80.07
68179;BME280;54998;42.656;23.382;2022-12-18T03:38:37;95805.88;;;3.04;79.89
68179;BME280;54998;42.656;23.382;2022-12-18T03:41:33;95808.69;;;2.98;80.12
68179;BME280;54998;42.656;23.382;2022-12-18T03:49:11;95816.47;;;2.95;79.51
68179;BME280;54998;42.656;23.382;2022-12-18T03:52:01;95829.47;;;3.06;79.68
68179;BME280;54998;42.656;23.382;2022-12-18T03:54:30;95834.22;;;2.95;79.52
68179;BME280;54998;42.656;23.382;2022-12-18T03:57:03;95823.97;;;3.16;78.60
68179;BME280;54998;42.656;23.382;2022-12-18T03:59:30;95828.00;;;3.20;78.24
68179;BME280;54998;42.656;23.382;2022-12-18T04:01:57;95828.16;;;3.17;78.34
68179;BME280;54998;42.656;23.382;2022-12-18T04:04:25;95831.38;;;3.01;78.77
68179;BME280;54998;42.656;23.382;2022-12-18T04:06:53;95828.91;;;3.00;78.93
68179;BME280;54998;42.656;23.382;2022-12-18T04:09:19;95837.13;;;3.05;78.60
68179;BME280;54998;42.656;23.382;2022-12-18T04:11:46;95824.94;;;2.94;78.76
68179;BME280;54998;42.656;23.382;2022-12-18T04:14:12;95817.34;;;2.94;78.68
68179;BME280;54998;42.656;23.382;2022-12-18T04:16:37;95838.44;;;2.95;78.29
68179;BME280;54998;42.656;23.382;2022-12-18T04:19:03;95843.50;;;2.95;78.30
68179;BME280;54998;42.656;23.382;2022-12-18T04:21:28;95846.41;;;3.06;78.16
68179;BME280;54998;42.656;23.382;2022-12-18T04:23:54;95848.09;;;3.05;77.84
68179;BME280;54998;42.656;23.382;2022-12-18T04:26:19;95847.69;;;2.96;77.85
68179;BME280;54998;42.656;23.382;2022-12-18T04:28:45;95849.25;;;2.79;77.65
68179;BME280;54998;42.656;23.382;2022-12-18T04:31:10;95860.97;;;2.82;77.50
68179;BME280;54998;42.656;23.382;2022-12-18T04:33:36;95860.25;;;2.80;77.48
68179;BME280;54998;42.656;23.382;2022-12-18T04:36:02;95861.47;;;2.90;77.69
68179;BME280;54998;42.656;23.382;2022-12-18T04:38:27;95859.19;;;3.03;76.72
68179;BME280;54998;42.656;23.382;2022-12-18T04:40:53;95861.69;;;3.04;76.34
68179;BME280;54998;42.656;23.382;2022-12-18T04:43:18;95867.03;;;2.98;76.47
68179;BME280;54998;42.656;23.382;2022-12-18T04:45:43;95877.84;;;2.83;76.90
68179;BME280;54998;42.656;23.382;2022-12-18T04:48:09;95874.28;;;2.87;76.22
68179;BME280;54998;42.656;23.382;2022-12-18T04:50:34;95877.91;;;3.00;75.97
68179;BME280;54998;42.656;23.382;2022-12-18T04:53:00;95892.09;;;2.85;76.12
68179;BME280;54998;42.656;23.382;2022-12-18T04:55:26;95883.06;;;2.80;76.27
68179;BME280;54998;42.656;23.382;2022-12-18T04:57:52;95896.97;;;2.90;75.55
68179;BME280;54998;42.656;23.382;2022-12-18T05:00:17;95909.16;;;2.82;75.17
68179;BME280;54998;42.656;23.382;2022-12-18T05:02:43;95890.09;;;2.73;75.57
68179;BME280;54998;42.656;23.382;2022-12-18T05:05:09;95903.47;;;2.77;74.87
68179;BME280;54998;42.656;23.382;2022-12-18T05:07:35;95904.63;;;2.70;75.21
68179;BME280;54998;42.656;23.382;2022-12-18T05:10:00;95894.09;;;2.79;74.71
68179;BME280;54998;42.656;23.382;2022-12-18T05:12:26;95894.53;;;2.88;74.16
68179;BME280;54998;42.656;23.382;2022-12-18T05:14:51;95906.25;;;2.71;74.42
68179;BME280;54998;42.656;23.382;2022-12-18T05:17:17;95903.38;;;2.59;74.71
68179;BME280;54998;42.656;23.382;2022-12-18T05:19:42;95914.06;;;2.66;74.72
68179;BME280;54998;42.656;23.382;2022-12-18T05:22:09;95927.09;;;2.58;75.35
68179;BME280;54998;42.656;23.382;2022-12-18T05:24:35;95938.03;;;2.59;75.27
68179;BME280;54998;42.656;23.382;2022-12-18T05:27:01;95930.28;;;2.62;75.08
68179;BME280;54998;42.656;23.382;2022-12-18T05:29:26;95928.66;;;2.61;74.75
68179;BME280;54998;42.656;23.382;2022-12-18T05:31:51;95935.56;;;2.57;75.00
68179;BME280;54998;42.656;23.382;2022-12-18T05:34:17;95927.72;;;2.43;75.48
68179;BME280;54998;42.656;23.382;2022-12-18T05:36:42;95925.19;;;2.43;75.24
68179;BME280;54998;42.656;23.382;2022-12-18T05:39:08;95935.06;;;2.49;74.64
68179;BME280;54998;42.656;23.382;2022-12-18T05:41:33;95936.47;;;2.36;75.01
68179;BME280;54998;42.656;23.382;2022-12-18T05:43:59;95927.03;;;2.39;74.68
68179;BME280;54998;42.656;23.382;2022-12-18T05:46:25;95942.03;;;2.44;74.31
68179;BME280;54998;42.656;23.382;2022-12-18T05:48:50;95942.09;;;2.42;74.05
68179;BME280;54998;42.656;23.382;2022-12-18T05:51:18;95955.53;;;2.44;74.63
68179;BME280;54998;42.656;23.382;2022-12-18T05:53:44;95941.47;;;2.37;74.47
68179;BME280;54998;42.656;23.382;2022-12-18T05:56:13;95946.16;;;2.46;74.39
68179;BME280;54998;42.656;23.382;2022-12-18T05:58:40;95943.09;;;2.38;74.32
68179;BME280;54998;42.656;23.382;2022-12-18T06:01:12;95968.66;;;2.54;73.76
68179;BME280;54998;42.656;23.382;2022-12-18T06:03:38;95971.81;;;2.39;73.75
68179;BME280;54998;42.656;23.382;2022-12-18T06:06:04;95963.50;;;2.15;74.28
68179;BME280;54998;42.656;23.382;2022-12-18T06:08:29;95968.97;;;2.26;74.10
68179;BME280;54998;42.656;23.382;2022-12-18T06:10:55;95973.13;;;2.27;73.88
68179;BME280;54998;42.656;23.382;2022-12-18T06:13:21;95965.56;;;2.25;73.69
68179;BME280;54998;42.656;23.382;2022-12-18T06:15:46;95974.75;;;2.08;74.00
68179;BME280;54998;42.656;23.382;2022-12-18T06:18:12;95962.59;;;2.16;74.07
68179;BME280;54998;42.656;23.382;2022-12-18T06:20:37;95981.53;;;2.28;73.61
68179;BME280;54998;42.656;23.382;2022-12-18T06:23:05;95979.88;;;2.06;74.32
68179;BME280;54998;42.656;23.382;2022-12-18T06:25:31;95981.28;;;2.13;74.17
68179;BME280;54998;42.656;23.382;2022-12-18T06:27:57;95976.78;;;2.20;73.96
68179;BME280;54998;42.656;23.382;2022-12-18T06:30:22;95985.69;;;2.08;74.28
68179;BME280;54998;42.656;23.382;2022-12-18T06:32:49;95992.75;;;2.22;73.66
68179;BME280;54998;42.656;23.382;2022-12-18T06:35:14;95990.22;;;2.22;73.96
68179;BME280;54998;42.656;23.382;2022-12-18T06:37:39;96003.84;;;2.19;74.08
68179;BME280;54998;42.656;23.382;2022-12-18T06:40:05;96002.50;;;2.31;74.20
68179;BME280;54998;42.656;23.382;2022-12-18T06:42:31;96010.13;;;2.31;73.98
68179;BME280;54998;42.656;23.382;2022-12-18T06:44:57;96023.34;;;2.38;73.68
68179;BME280;54998;42.656;23.382;2022-12-18T06:47:22;96017.03;;;2.48;73.52
68179;BME280;54998;42.656;23.382;2022-12-18T06:49:48;96020.72;;;2.41;73.51
68179;BME280;54998;42.656;23.382;2022-12-18T06:52:13;95993.09;;;2.35;73.22
68179;BME280;54998;42.656;23.382;2022-12-18T06:54:39;96012.84;;;2.26;73.48
68179;BME280;54998;42.656;23.382;2022-12-18T06:57:04;96022.34;;;2.42;73.37
68179;BME280;54998;42.656;23.382;2022-12-18T06:59:30;96009.72;;;2.40;72.90
68179;BME280;54998;42.656;23.382;2022-12-18T07:01:55;96022.72;;;2.33;72.63
68179;BME280;54998;42.656;23.382;2022-12-18T07:04:21;96022.53;;;2.37;71.93
68179;BME280;54998;42.656;23.382;2022-12-18T07:06:46;96044.88;;;2.28;72.04
68179;BME280;54998;42.656;23.382;2022-12-18T07:09:11;96032.47;;;2.42;71.95
68179;BME280;54998;42.656;23.382;2022-12-18T07:11:37;96032.06;;;2.53;71.43
68179;BME280;54998;42.656;23.382;2022-12-18T07:14:02;96028.56;;;2.35;71.19
68179;BME280;54998;42.656;23.382;2022-12-18T07:16:28;96036.03;;;2.38;71.07
68179;BME280;54998;42.656;23.382;2022-12-18T07:18:56;96032.28;;;2.46;71.20
68179;BME280;54998;42.656;23.382;2022-12-18T07:21:22;96034.38;;;2.37;71.13
68179;BME280;54998;42.656;23.382;2022-12-18T07:23:48;96039.03;;;2.47;71.22
68179;BME280;54998;42.656;23.382;2022-12-18T07:26:17;96047.78;;;2.61;70.63
68179;BME280;54998;42.656;23.382;2022-12-18T07:28:43;96035.41;;;2.53;70.55
68179;BME280;54998;42.656;23.382;2022-12-18T07:31:12;96051.25;;;2.58;70.51
68179;BME280;54998;42.656;23.382;2022-12-18T07:33:38;96046.69;;;2.66;70.69
68179;BME280;54998;42.656;23.382;2022-12-18T07:36:05;96045.91;;;2.64;70.72
68179;BME280;54998;42.656;23.382;2022-12-18T07:38:32;96044.41;;;2.81;70.31
68179;BME280;54998;42.656;23.382;2022-12-18T07:41:03;96058.06;;;2.78;69.81
68179;BME280;54998;42.656;23.382;2022-12-18T07:43:29;96061.41;;;2.58;70.22
68179;BME280;54998;42.656;23.382;2022-12-18T07:45:54;96060.22;;;2.45;70.86
68179;BME280;54998;42.656;23.382;2022-12-18T07:48:19;96051.13;;;2.41;71.27
68179;BME280;54998;42.656;23.382;2022-12-18T07:50:45;96061.06;;;2.45;71.11
68179;BME280;54998;42.656;23.382;2022-12-18T07:53:13;96068.47;;;2.50;70.97
68179;BME280;54998;42.656;23.382;2022-12-18T07:55:40;96067.72;;;2.48;70.38
68179;BME280;54998;42.656;23.382;2022-12-18T07:58:06;96074.69;;;2.43;71.43
68179;BME280;54998;42.656;23.382;2022-12-18T08:00:33;96089.28;;;2.58;71.16
68179;BME280;54998;42.656;23.382;2022-12-18T08:02:58;96072.22;;;2.41;71.04
68179;BME280;54998;42.656;23.382;2022-12-18T08:05:24;96101.25;;;2.33;71.32
68179;BME280;54998;42.656;23.382;2022-12-18T08:07:49;96093.53;;;2.36;71.47
68179;BME280;54998;42.656;23.382;2022-12-18T08:10:15;96106.44;;;2.30;71.84
68179;BME280;54998;42.656;23.382;2022-12-18T08:12:40;96111.94;;;2.41;71.54
68179;BME280;54998;42.656;23.382;2022-12-18T08:15:06;96116.16;;;2.40;71.67
68179;BME280;54998;42.656;23.382;2022-12-18T08:17:32;96102.78;;;2.37;72.14
68179;BME280;54998;42.656;23.382;2022-12-18T08:19:58;96127.13;;;2.41;71.40
68179;BME280;54998;42.656;23.382;2022-12-18T08:22:23;96119.22;;;2.26;72.15
68179;BME280;54998;42.656;23.382;2022-12-18T08:24:48;96128.31;;;2.32;71.72
68179;BME280;54998;42.656;23.382;2022-12-18T08:27:14;96119.63;;;2.16;72.27
68179;BME280;54998;42.656;23.382;2022-12-18T08:29:39;96135.47;;;2.21;72.36
68179;BME280;54998;42.656;23.382;2022-12-18T08:32:05;96134.56;;;2.23;71.61
68179;BME280;54998;42.656;23.382;2022-12-18T08:34:30;96121.53;;;2.11;71.81
68179;BME280;54998;42.656;23.382;2022-12-18T08:36:55;96142.84;;;2.27;71.52
68179;BME280;54998;42.656;23.382;2022-12-18T08:39:21;96116.47;;;2.33;71.24
68179;BME280;54998;42.656;23.382;2022-12-18T08:41:46;96128.13;;;2.37;70.37
68179;BME280;54998;42.656;23.382;2022-12-18T08:44:32;96123.53;;;2.24;70.58
68179;BME280;54998;42.656;23.382;2022-12-18T08:47:04;96130.88;;;2.09;71.63
68179;BME280;54998;42.656;23.382;2022-12-18T08:49:29;96140.94;;;2.10;71.34
68179;BME280;54998;42.656;23.382;2022-12-18T08:51:56;96147.09;;;2.26;70.52
68179;BME280;54998;42.656;23.382;2022-12-18T08:54:25;96145.19;;;2.32;70.01
68179;BME280;54998;42.656;23.382;2022-12-18T08:56:50;96141.88;;;2.30;70.31
68179;BME280;54998;42.656;23.382;2022-12-18T08:59:16;96118.50;;;2.23;70.25
68179;BME280;54998;42.656;23.382;2022-12-18T09:01:42;96126.81;;;2.26;70.03
68179;BME280;54998;42.656;23.382;2022-12-18T09:04:09;96131.16;;;2.23;69.57
68179;BME280;54998;42.656;23.382;2022-12-18T09:06:35;96127.28;;;2.14;69.68
68179;BME280;54998;42.656;23.382;2022-12-18T09:09:00;96107.56;;;2.22;69.50
68179;BME280;54998;42.656;23.382;2022-12-18T09:11:28;96118.03;;;2.35;68.81
68179;BME280;54998;42.656;23.382;2022-12-18T09:13:54;96136.94;;;2.49;68.39
68179;BME280;54998;42.656;23.382;2022-12-18T09:16:21;96137.44;;;2.58;67.55
68179;BME280;54998;42.656;23.382;2022-12-18T09:18:47;96130.84;;;2.32;67.88
68179;BME280;54998;42.656;23.382;2022-12-18T09:21:15;96131.16;;;2.01;68.70
68179;BME280;54998;42.656;23.382;2022-12-18T09:23:41;96135.47;;;2.21;68.36
68179;BME280;54998;42.656;23.382;2022-12-18T09:26:06;96138.38;;;2.34;67.57
68179;BME280;54998;42.656;23.382;2022-12-18T09:28:32;96136.59;;;2.36;67.57
68179;BME280;54998;42.656;23.382;2022-12-18T09:30:58;96138.09;;;2.41;66.87
68179;BME280;54998;42.656;23.382;2022-12-18T09:33:23;96135.19;;;2.29;67.44
68179;BME280;54998;42.656;23.382;2022-12-18T09:35:49;96138.50;;;2.53;67.15
68179;BME280;54998;42.656;23.382;2022-12-18T09:38:17;96134.94;;;2.57;67.10
68179;BME280;54998;42.656;23.382;2022-12-18T09:40:54;96140.38;;;2.70;66.56
68179;BME280;54998;42.656;23.382;2022-12-18T09:43:41;96136.69;;;2.77;66.51
68179;BME280;54998;42.656;23.382;2022-12-18T09:46:28;96142.09;;;2.90;65.83
68179;BME280;54998;42.656;23.382;2022-12-18T09:49:00;96152.81;;;2.76;65.61
68179;BME280;54998;42.656;23.382;2022-12-18T09:51:27;96143.06;;;2.87;65.81
68179;BME280;54998;42.656;23.382;2022-12-18T09:53:58;96121.53;;;2.75;65.23
68179;BME280;54998;42.656;23.382;2022-12-18T09:56:28;96137.97;;;2.87;65.40
68179;BME280;54998;42.656;23.382;2022-12-18T09:59:01;96124.66;;;2.82;65.34
68179;BME280;54998;42.656;23.382;2022-12-18T10:01:28;96139.50;;;2.91;64.92
68179;BME280;54998;42.656;23.382;2022-12-18T10:03:55;96148.19;;;2.85;64.75
68179;BME280;54998;42.656;23.382;2022-12-18T10:06:29;96144.34;;;2.75;65.39
68179;BME280;54998;42.656;23.382;2022-12-18T10:09:16;96137.97;;;2.87;65.24
68179;BME280;54998;42.656;23.382;2022-12-18T10:17:28;96140.75;;;2.81;64.36
68179;BME280;54998;42.656;23.382;2022-12-18T10:22:42;96140.56;;;2.85;64.49
68179;BME280;54998;42.656;23.382;2022-12-18T10:25:26;96135.97;;;2.95;64.19
68179;BME280;54998;42.656;23.382;2022-12-18T10:27:57;96126.50;;;2.99;64.26
68179;BME280;54998;42.656;23.382;2022-12-18T10:30:25;96138.09;;;2.84;63.87
68179;BME280;54998;42.656;23.382;2022-12-18T10:32:52;96143.69;;;2.92;63.08
68179;BME280;54998;42.656;23.382;2022-12-18T10:35:20;96129.47;;;2.88;63.60
68179;BME280;54998;42.656;23.382;2022-12-18T10:40:28;96135.97;;;3.16;62.91
68179;BME280;54998;42.656;23.382;2022-12-18T10:45:29;96135.97;;;3.16;62.73
68179;BME280;54998;42.656;23.382;2022-12-18T10:47:55;96123.19;;;3.38;63.42
68179;BME280;54998;42.656;23.382;2022-12-18T10:52:56;96137.19;;;3.27;63.33
68179;BME280;54998;42.656;23.382;2022-12-18T10:55:24;96123.00;;;3.42;63.99
68179;BME280;54998;42.656;23.382;2022-12-18T10:57:52;96128.50;;;3.52;64.15
68179;BME280;54998;42.656;23.382;2022-12-18T11:00:27;96132.88;;;3.69;62.94
68179;BME280;54998;42.656;23.382;2022-12-18T11:02:53;96122.63;;;3.31;63.59
68179;BME280;54998;42.656;23.382;2022-12-18T11:05:25;96127.19;;;3.23;64.31
68179;BME280;54998;42.656;23.382;2022-12-18T11:07:51;96138.41;;;3.38;63.65
68179;BME280;54998;42.656;23.382;2022-12-18T11:10:21;96130.50;;;3.25;63.62
68179;BME280;54998;42.656;23.382;2022-12-18T11:12:47;96136.38;;;3.46;63.17
68179;BME280;54998;42.656;23.382;2022-12-18T11:15:27;96124.22;;;3.13;64.12
68179;BME280;54998;42.656;23.382;2022-12-18T11:17:53;96112.38;;;3.34;63.74
68179;BME280;54998;42.656;23.382;2022-12-18T11:20:23;96131.56;;;3.40;62.74
68179;BME280;54998;42.656;23.382;2022-12-18T11:23:04;96129.22;;;3.35;61.72
68179;BME280;54998;42.656;23.382;2022-12-18T11:25:38;96133.84;;;3.46;60.57
68179;BME280;54998;42.656;23.382;2022-12-18T11:28:06;96131.13;;;3.50;60.37
68179;BME280;54998;42.656;23.382;2022-12-18T11:36:16;96134.00;;;3.02;62.34
68179;BME280;54998;42.656;23.382;2022-12-18T11:38:43;96136.78;;;3.16;62.54
68179;BME280;54998;42.656;23.382;2022-12-18T11:41:59;96140.41;;;3.11;63.09
68179;BME280;54998;42.656;23.382;2022-12-18T11:44:58;96134.94;;;3.20;62.77
68179;BME280;54998;42.656;23.382;2022-12-18T11:50:23;96142.28;;;3.46;61.15
68179;BME280;54998;42.656;23.382;2022-12-18T11:52:49;96154.84;;;3.49;60.94
68179;BME280;54998;42.656;23.382;2022-12-18T11:55:29;96147.25;;;3.49;61.71
68179;BME280;54998;42.656;23.382;2022-12-18T12:01:11;96140.84;;;3.41;61.00
68179;BME280;54998;42.656;23.382;2022-12-18T12:21:53;96141.72;;;3.40;61.88
68179;BME280;54998;42.656;23.382;2022-12-18T12:27:17;96140.28;;;3.34;61.89
68179;BME280;54998;42.656;23.382;2022-12-18T12:32:54;96143.19;;;3.45;61.68
68179;BME280;54998;42.656;23.382;2022-12-18T12:38:16;96148.75;;;3.33;61.53
68179;BME280;54998;42.656;23.382;2022-12-18T12:40:49;96153.97;;;3.30;61.96
68179;BME280;54998;42.656;23.382;2022-12-18T12:43:42;96158.31;;;3.47;62.07
68179;BME280;54998;42.656;23.382;2022-12-18T12:46:13;96149.38;;;3.59;61.65
68179;BME280;54998;42.656;23.382;2022-12-18T12:49:00;96151.97;;;3.57;61.67
68179;BME280;54998;42.656;23.382;2022-12-18T12:51:32;96151.88;;;3.60;61.55
68179;BME280;54998;42.656;23.382;2022-12-18T12:54:00;96158.72;;;3.77;61.38
68179;BME280;54998;42.656;23.382;2022-12-18T12:56:39;96139.72;;;3.67;61.69
68179;BME280;54998;42.656;23.382;2022-12-18T12:59:13;96162.69;;;3.64;61.45
68179;BME280;54998;42.656;23.382;2022-12-18T13:01:53;96159.25;;;3.25;62.39
68179;BME280;54998;42.656;23.382;2022-12-18T13:04:42;96176.47;;;3.38;62.63
68179;BME280;54998;42.656;23.382;2022-12-18T13:12:57;96178.16;;;3.39;62.55
68179;BME280;54998;42.656;23.382;2022-12-18T13:18:10;96179.09;;;3.36;63.19
68179;BME280;54998;42.656;23.382;2022-12-18T13:28:26;96194.78;;;3.25;62.08
68179;BME280;54998;42.656;23.382;2022-12-18T13:31:08;96190.25;;;3.53;61.87
68179;BME280;54998;42.656;23.382;2022-12-18T13:36:41;96195.66;;;3.45;61.77
68179;BME280;54998;42.656;23.382;2022-12-18T13:41:54;96192.38;;;3.43;61.89
68179;BME280;54998;42.656;23.382;2022-12-18T13:44:58;96194.50;;;3.32;62.26
68179;BME280;54998;42.656;23.382;2022-12-18T13:47:34;96203.59;;;3.37;62.73
68179;BME280;54998;42.656;23.382;2022-12-18T13:50:10;96209.63;;;3.35;62.49
68179;BME280;54998;42.656;23.382;2022-12-18T13:52:43;96207.75;;;3.38;62.77
68179;BME280;54998;42.656;23.382;2022-12-18T13:55:16;96223.81;;;3.39;62.50
68179;BME280;54998;42.656;23.382;2022-12-18T13:57:43;96230.59;;;3.38;62.70
68179;BME280;54998;42.656;23.382;2022-12-18T14:00:24;96218.38;;;3.27;62.74
68179;BME280;54998;42.656;23.382;2022-12-18T14:02:51;96216.66;;;3.28;63.07
68179;BME280;54998;42.656;23.382;2022-12-18T14:05:36;96224.69;;;3.38;63.29
68179;BME280;54998;42.656;23.382;2022-12-18T14:08:14;96229.72;;;3.60;62.64
68179;BME280;54998;42.656;23.382;2022-12-18T14:10:41;96232.06;;;3.44;62.74
68179;BME280;54998;42.656;23.382;2022-12-18T14:13:09;96220.63;;;3.34;62.93
68179;BME280;54998;42.656;23.382;2022-12-18T14:15:43;96227.81;;;3.24;62.67
68179;BME280;54998;42.656;23.382;2022-12-18T14:18:20;96238.53;;;3.31;62.58
68179;BME280;54998;42.656;23.382;2022-12-18T14:20:48;96237.56;;;3.33;62.49
68179;BME280;54998;42.656;23.382;2022-12-18T14:33:14;96244.03;;;3.40;61.36
68179;BME280;54998;42.656;23.382;2022-12-18T14:35:42;96243.09;;;3.22;61.27
68179;BME280;54998;42.656;23.382;2022-12-18T14:38:37;96238.06;;;3.21;61.32
68179;BME280;54998;42.656;23.382;2022-12-18T14:41:06;96247.88;;;2.86;61.76
68179;BME280;54998;42.656;23.382;2022-12-18T14:43:37;96242.16;;;2.81;61.68
68179;BME280;54998;42.656;23.382;2022-12-18T14:48:50;96238.28;;;2.72;61.77
68179;BME280;54998;42.656;23.382;2022-12-18T14:56:22;96244.00;;;2.77;61.62
68179;BME280;54998;42.656;23.382;2022-12-18T14:58:51;96249.59;;;2.85;61.29
68179;BME280;54998;42.656;23.382;2022-12-18T15:01:32;96253.53;;;2.93;60.55
68179;BME280;54998;42.656;23.382;2022-12-18T15:04:00;96250.09;;;2.95;60.50
68179;BME280;54998;42.656;23.382;2022-12-18T15:06:37;96250.94;;;2.94;60.73
68179;BME280;54998;42.656;23.382;2022-12-18T15:09:22;96256.66;;;2.77;60.35
68179;BME280;54998;42.656;23.382;2022-12-18T15:11:55;96258.09;;;2.84;60.12
68179;BME280;54998;42.656;23.382;2022-12-18T15:14:35;96259.09;;;2.80;60.65
68179;BME280;54998;42.656;23.382;2022-12-18T15:17:21;96265.03;;;3.01;59.88